createdAt,value
2018-04-08T00:00:24.315Z,17.87
2018-04-08T00:02:51.330Z,14.03
2018-04-08T00:05:17.660Z,17.33
2018-04-08T00:07:43.972Z,17.73
2018-04-08T00:10:10.302Z,17.80
2018-04-08T00:12:36.628Z,13.23
2018-04-08T00:15:02.925Z,19.13
2018-04-08T00:17:29.920Z,21.17
2018-04-08T00:19:56.238Z,18.03
2018-04-08T00:22:22.476Z,13.63
2018-04-08T00:24:48.773Z,14.60
2018-04-08T00:27:15.123Z,22.07
2018-04-08T00:29:41.522Z,18.13
2018-04-08T00:32:08.514Z,17.97
2018-04-08T00:34:34.780Z,19.30
2018-04-08T00:37:01.612Z,17.77
2018-04-08T00:39:27.879Z,16.50
2018-04-08T00:41:54.905Z,22.77
2018-04-08T00:44:21.204Z,13.90
2018-04-08T00:46:47.533Z,18.67
2018-04-08T00:49:14.606Z,20.17
2018-04-08T00:51:40.968Z,17.30
2018-04-08T00:54:22.628Z,15.10
2018-04-08T00:56:48.923Z,16.00
2018-04-08T00:59:15.294Z,14.47
2018-04-08T01:01:41.604Z,18.87
2018-04-08T01:04:07.874Z,18.43
2018-04-08T01:06:34.917Z,16.50
2018-04-08T01:09:02.887Z,18.07
2018-04-08T01:11:29.907Z,19.20
2018-04-08T01:13:56.211Z,19.80
2018-04-08T01:16:22.531Z,29.07
2018-04-08T01:18:48.825Z,19.37
2018-04-08T01:21:15.889Z,14.10
2018-04-08T01:23:43.912Z,16.63
2018-04-08T01:26:10.936Z,16.07
2018-04-08T01:28:37.287Z,18.33
2018-04-08T01:31:03.570Z,18.00
2018-04-08T01:33:30.642Z,20.50
2018-04-08T01:35:56.942Z,20.00
2018-04-08T01:38:24.169Z,16.53
2018-04-08T01:40:50.454Z,19.17
2018-04-08T01:43:16.685Z,22.37
2018-04-08T01:45:42.958Z,20.23
2018-04-08T01:48:09.573Z,22.10
2018-04-08T01:50:35.859Z,21.97
2018-04-08T01:53:02.863Z,16.97
2018-04-08T01:55:29.167Z,18.73
2018-04-08T01:57:55.465Z,19.47
2018-04-08T02:00:23.476Z,24.03
2018-04-08T02:02:49.753Z,20.30
2018-04-08T02:05:16.776Z,18.10
2018-04-08T02:07:43.072Z,17.10
2018-04-08T02:10:09.370Z,18.80
2018-04-08T02:12:35.684Z,22.50
2018-04-08T02:15:02.759Z,18.70
2018-04-08T02:17:29.078Z,22.20
2018-04-08T02:19:56.135Z,21.53
2018-04-08T02:22:23.149Z,21.73
2018-04-08T02:24:49.445Z,21.47
2018-04-08T02:27:15.783Z,24.13
2018-04-08T02:29:42.143Z,16.83
2018-04-08T02:32:08.458Z,24.00
2018-04-08T02:34:34.751Z,23.30
2018-04-08T02:37:01.878Z,17.63
2018-04-08T02:39:29.661Z,21.70
2018-04-08T02:41:56.700Z,19.40
2018-04-08T02:44:23.683Z,18.60
2018-04-08T02:46:50.017Z,19.77
2018-04-08T02:49:16.300Z,21.37
2018-04-08T02:51:43.323Z,18.67
2018-04-08T02:54:09.615Z,21.17
2018-04-08T02:56:35.877Z,20.60
2018-04-08T02:59:02.152Z,17.13
2018-04-08T03:01:28.749Z,18.97
2018-04-08T03:03:55.050Z,19.43
2018-04-08T03:06:21.323Z,19.00
2018-04-08T03:08:48.387Z,26.77
2018-04-08T03:11:15.412Z,15.83
2018-04-08T03:13:42.452Z,17.53
2018-04-08T03:16:08.771Z,18.87
2018-04-08T03:18:35.079Z,22.00
2018-04-08T03:21:01.364Z,18.70
2018-04-08T03:23:28.380Z,18.90
2018-04-08T03:25:54.630Z,16.93
2018-04-08T03:28:20.962Z,19.00
2018-04-08T03:30:47.260Z,20.03
2018-04-08T03:33:13.551Z,20.73
2018-04-08T03:35:39.876Z,21.67
2018-04-08T03:38:06.880Z,20.60
2018-04-08T03:40:33.205Z,18.43
2018-04-08T03:42:59.805Z,19.70
2018-04-08T03:45:26.099Z,25.43
2018-04-08T03:47:53.220Z,19.30
2018-04-08T03:50:19.892Z,21.70
2018-04-08T03:52:47.896Z,19.53
2018-04-08T03:55:14.203Z,19.33
2018-04-08T03:57:41.208Z,18.13
2018-04-08T04:00:07.538Z,21.43
2018-04-08T04:02:33.894Z,19.40
2018-04-08T04:05:01.186Z,23.80
2018-04-08T04:07:27.558Z,21.37
2018-04-08T04:09:53.871Z,23.73
2018-04-08T04:12:20.193Z,20.93
2018-04-08T04:14:46.467Z,23.43
2018-04-08T04:17:12.751Z,19.93
2018-04-08T04:19:57.693Z,24.87
2018-04-08T04:25:49.980Z,20.17
2018-04-08T04:28:16.319Z,24.93
2018-04-08T04:30:42.711Z,21.40
2018-04-08T04:33:09.799Z,21.23
2018-04-08T04:35:36.133Z,18.90
2018-04-08T04:38:02.428Z,19.87
2018-04-08T04:40:28.740Z,22.20
2018-04-08T04:42:55.024Z,19.83
2018-04-08T04:45:21.323Z,20.37
2018-04-08T04:47:47.956Z,20.90
2018-04-08T04:50:14.990Z,27.33
2018-04-08T04:52:41.309Z,21.00
2018-04-08T04:55:07.749Z,22.83
2018-04-08T04:57:34.016Z,19.80
2018-04-08T05:00:00.315Z,18.40
2018-04-08T05:02:26.642Z,20.63
2018-04-08T05:04:52.939Z,23.70
2018-04-08T05:07:19.269Z,20.57
2018-04-08T05:09:45.596Z,20.07
2018-04-08T05:12:11.936Z,21.27
2018-04-08T05:14:38.325Z,20.20
2018-04-08T05:17:04.656Z,19.57
2018-04-08T05:19:30.953Z,18.50
2018-04-08T05:21:57.273Z,22.73
2018-04-08T05:24:23.552Z,18.37
2018-04-08T05:26:49.835Z,17.83
2018-04-08T05:29:16.251Z,19.90
2018-04-08T05:31:42.543Z,19.50
2018-04-08T05:34:08.859Z,17.80
2018-04-08T05:36:35.996Z,20.80
2018-04-08T05:39:03.072Z,18.93
2018-04-08T05:41:29.373Z,16.70
2018-04-08T05:43:55.674Z,19.67
2018-04-08T05:46:21.965Z,18.40
2018-04-08T05:48:48.260Z,18.67
2018-04-08T05:51:14.786Z,20.50
2018-04-08T05:53:41.058Z,22.17
2018-04-08T05:56:07.412Z,19.87
2018-04-08T05:58:33.754Z,23.43
2018-04-08T06:01:00.049Z,18.13
2018-04-08T06:03:27.060Z,19.37
2018-04-08T06:05:53.352Z,18.80
2018-04-08T06:08:19.668Z,18.70
2018-04-08T06:10:46.241Z,23.00
2018-04-08T06:13:12.527Z,20.53
2018-04-08T06:15:38.833Z,19.53
2018-04-08T06:18:05.111Z,20.77
2018-04-08T06:20:31.439Z,20.67
2018-04-08T06:22:57.732Z,24.57
2018-04-08T06:25:24.111Z,19.37
2018-04-08T06:27:50.427Z,28.00
2018-04-08T06:30:16.790Z,21.63
2018-04-08T06:32:43.059Z,19.07
2018-04-08T06:35:10.075Z,19.90
2018-04-08T06:37:36.834Z,19.80
2018-04-08T06:40:03.120Z,24.23
2018-04-08T06:42:29.486Z,19.73
2018-04-08T06:44:55.882Z,18.77
2018-04-08T06:47:22.163Z,15.97
2018-04-08T06:49:49.252Z,16.83
2018-04-08T06:52:15.568Z,23.63
2018-04-08T06:54:41.917Z,22.87
2018-04-08T06:57:08.212Z,17.50
2018-04-08T06:59:35.228Z,19.40
2018-04-08T07:02:01.506Z,20.93
2018-04-08T07:04:27.827Z,19.90
2018-04-08T07:06:54.930Z,22.23
2018-04-08T07:09:21.241Z,20.57
2018-04-08T07:11:47.553Z,20.53
2018-04-08T07:14:13.865Z,20.57
2018-04-08T07:16:40.920Z,19.40
2018-04-08T07:19:07.995Z,19.37
2018-04-08T07:21:34.289Z,19.50
2018-04-08T07:24:01.309Z,23.43
2018-04-08T07:26:27.631Z,21.10
2018-04-08T07:28:53.957Z,18.27
2018-04-08T07:31:20.297Z,22.67
2018-04-08T07:33:46.584Z,19.43
2018-04-08T07:36:12.914Z,26.87
2018-04-08T07:38:39.492Z,22.83
2018-04-08T07:41:05.852Z,22.97
2018-04-08T07:43:32.142Z,19.37
2018-04-08T07:45:58.473Z,22.83
2018-04-08T07:48:24.804Z,19.53
2018-04-08T07:50:51.475Z,22.20
2018-04-08T07:53:17.761Z,23.00
2018-04-08T07:55:44.111Z,20.50
2018-04-08T07:58:11.425Z,20.03
2018-04-08T08:00:38.509Z,20.13
2018-04-08T08:03:04.799Z,24.23
2018-04-08T08:05:31.833Z,17.53
2018-04-08T08:07:58.844Z,21.80
2018-04-08T08:10:25.112Z,17.70
2018-04-08T08:12:52.131Z,21.13
2018-04-08T08:15:18.508Z,23.73
2018-04-08T08:17:44.794Z,21.03
2018-04-08T08:20:11.276Z,18.77
2018-04-08T08:22:37.563Z,19.07
2018-04-08T08:25:03.848Z,18.17
2018-04-08T08:27:30.243Z,19.90
2018-04-08T08:29:56.593Z,19.23
2018-04-08T08:32:23.601Z,20.30
2018-04-08T08:34:49.894Z,20.27
2018-04-08T08:37:16.303Z,19.40
2018-04-08T08:39:43.350Z,17.80
2018-04-08T08:42:10.389Z,17.70
2018-04-08T08:44:38.257Z,24.30
2018-04-08T08:47:05.290Z,18.37
2018-04-08T08:49:31.591Z,20.13
2018-04-08T08:51:57.920Z,17.27
2018-04-08T08:54:24.273Z,19.50
2018-04-08T08:56:50.592Z,19.00
2018-04-08T08:59:16.930Z,22.40
2018-04-08T09:01:43.344Z,23.03
2018-04-08T09:04:09.627Z,17.23
2018-04-08T09:06:36.746Z,21.33
2018-04-08T09:09:03.075Z,17.70
2018-04-08T09:11:29.368Z,20.53
2018-04-08T09:13:55.630Z,20.10
2018-04-08T09:16:22.709Z,17.80
2018-04-08T09:18:55.924Z,17.93
2018-04-08T09:21:24.301Z,21.00
2018-04-08T09:24:01.600Z,21.10
2018-04-08T09:26:27.884Z,22.00
2018-04-08T09:28:54.286Z,18.20
2018-04-08T09:31:20.597Z,19.60
2018-04-08T09:33:46.934Z,18.83
2018-04-08T09:36:13.282Z,18.70
2018-04-08T09:38:39.574Z,19.50
2018-04-08T09:41:06.622Z,18.27
2018-04-08T09:43:33.026Z,18.70
2018-04-08T09:45:59.369Z,19.00
2018-04-08T09:48:26.458Z,17.67
2018-04-08T09:50:52.885Z,19.37
2018-04-08T09:53:19.175Z,18.40
2018-04-08T09:55:45.491Z,20.07
2018-04-08T09:58:14.499Z,18.03
2018-04-08T10:00:46.719Z,17.60
2018-04-08T10:03:14.869Z,19.33
2018-04-08T10:05:41.994Z,19.37
2018-04-08T10:08:08.252Z,16.97
2018-04-08T10:10:34.732Z,18.97
2018-04-08T10:13:01.127Z,18.50
2018-04-08T10:15:28.166Z,17.40
2018-04-08T10:17:54.912Z,19.27
2018-04-08T10:20:21.224Z,19.33
2018-04-08T10:22:48.248Z,25.27
2018-04-08T10:25:14.703Z,23.90
2018-04-08T10:27:41.797Z,24.10
2018-04-08T10:30:08.163Z,23.50
2018-04-08T10:32:34.484Z,24.00
2018-04-08T10:35:00.759Z,21.17
2018-04-08T10:37:27.129Z,18.33
2018-04-08T10:39:53.462Z,23.17
2018-04-08T10:42:19.981Z,26.77
2018-04-08T10:44:46.317Z,24.03
2018-04-08T10:47:12.615Z,27.77
2018-04-08T10:49:39.672Z,22.30
2018-04-08T10:52:06.035Z,20.93
2018-04-08T10:54:32.403Z,23.40
2018-04-08T10:56:58.727Z,25.30
2018-04-08T10:59:25.330Z,23.80
2018-04-08T11:01:51.807Z,20.70
2018-04-08T11:04:18.072Z,26.20
2018-04-08T11:06:44.400Z,26.47
2018-04-08T11:09:10.724Z,26.00
2018-04-08T11:11:37.532Z,25.10
2018-04-08T11:14:03.887Z,21.33
2018-04-08T11:16:30.949Z,24.07
2018-04-08T11:18:57.606Z,21.63
2018-04-08T11:21:23.975Z,25.07
2018-04-08T11:23:50.235Z,25.83
2018-04-08T11:26:17.399Z,25.77
2018-04-08T11:28:43.728Z,22.27
2018-04-08T11:31:10.818Z,25.67
2018-04-08T11:33:37.179Z,24.60
2018-04-08T11:36:03.479Z,23.00
2018-04-08T11:38:29.840Z,28.03
2018-04-08T11:40:56.116Z,20.30
2018-04-08T11:43:22.432Z,22.27
2018-04-08T11:45:49.458Z,25.37
2018-04-08T11:48:16.616Z,22.70
2018-04-08T11:50:43.642Z,23.93
2018-04-08T11:53:10.918Z,21.03
2018-04-08T11:55:37.955Z,22.40
2018-04-08T11:58:04.312Z,19.57
2018-04-08T12:00:31.350Z,23.50
2018-04-08T12:02:58.431Z,20.43
2018-04-08T12:05:24.755Z,21.40
2018-04-08T12:07:51.102Z,21.77
2018-04-08T12:10:17.431Z,20.47
2018-04-08T12:12:43.728Z,19.90
2018-04-08T12:15:10.018Z,22.70
2018-04-08T12:17:36.316Z,20.20
2018-04-08T12:20:02.696Z,21.33
2018-04-08T12:22:29.018Z,21.50
2018-04-08T12:24:55.340Z,22.13
2018-04-08T12:27:21.677Z,24.13
2018-04-08T12:29:48.000Z,22.83
2018-04-08T12:32:14.404Z,23.17
2018-04-08T12:34:40.766Z,23.27
2018-04-08T12:37:07.935Z,23.90
2018-04-08T12:39:34.272Z,25.17
2018-04-08T12:42:00.819Z,22.20
2018-04-08T12:44:27.853Z,27.93
2018-04-08T12:46:54.224Z,29.03
2018-04-08T12:49:20.532Z,24.00
2018-04-08T12:51:47.610Z,25.70
2018-04-08T12:54:16.367Z,22.90
2018-04-08T12:56:43.411Z,22.53
2018-04-08T12:59:11.492Z,26.33
2018-04-08T13:01:38.572Z,26.20
2018-04-08T13:04:05.980Z,23.90
2018-04-08T13:06:32.406Z,22.37
2018-04-08T13:08:58.723Z,21.80
2018-04-08T13:11:24.991Z,22.60
2018-04-08T13:13:52.013Z,22.30
2018-04-08T13:16:19.876Z,23.83
2018-04-08T13:18:46.217Z,22.50
2018-04-08T13:21:12.584Z,22.70
2018-04-08T13:23:38.960Z,22.07
2018-04-08T13:26:05.296Z,25.33
2018-04-08T13:28:31.885Z,23.50
2018-04-08T13:30:58.182Z,21.63
2018-04-08T13:33:24.547Z,22.10
2018-04-08T13:35:50.842Z,21.77
2018-04-08T13:38:17.104Z,24.10
2018-04-08T13:40:43.462Z,19.90
2018-04-08T13:43:10.714Z,21.20
2018-04-08T13:45:37.854Z,23.07
2018-04-08T13:48:04.120Z,22.87
2018-04-08T13:50:30.431Z,23.53
2018-04-08T13:52:56.691Z,22.20
2018-04-08T13:55:23.810Z,22.83
2018-04-08T13:57:50.139Z,22.60
2018-04-08T14:00:16.441Z,23.97
2018-04-08T14:02:49.656Z,23.17
2018-04-08T14:05:15.950Z,25.00
2018-04-08T14:07:42.374Z,24.20
2018-04-08T14:10:08.752Z,23.97
2018-04-08T14:12:35.062Z,22.23
2018-04-08T14:15:01.391Z,25.97
2018-04-08T14:17:27.660Z,25.00
2018-04-08T14:19:53.959Z,25.13
2018-04-08T14:22:20.261Z,22.43
2018-04-08T14:24:47.441Z,21.60
2018-04-08T14:27:14.521Z,24.03
2018-04-08T14:29:40.833Z,23.77
2018-04-08T14:32:07.159Z,24.50
2018-04-08T14:34:33.764Z,24.00
2018-04-08T14:37:00.863Z,23.23
2018-04-08T14:39:27.133Z,22.93
2018-04-08T14:41:54.225Z,22.93
2018-04-08T14:44:20.538Z,25.37
2018-04-08T14:46:46.812Z,24.70
2018-04-08T14:49:14.006Z,27.10
2018-04-08T14:51:41.056Z,25.67
2018-04-08T14:54:08.073Z,25.97
2018-04-08T14:56:35.844Z,25.53
2018-04-08T14:59:02.206Z,25.20
2018-04-08T15:01:29.301Z,29.40
2018-04-08T15:03:55.666Z,25.77
2018-04-08T15:06:22.791Z,25.30
2018-04-08T15:08:49.152Z,27.80
2018-04-08T15:11:15.807Z,27.27
2018-04-08T15:13:42.154Z,28.70
2018-04-08T15:16:09.374Z,29.17
2018-04-08T15:18:36.659Z,28.23
2018-04-08T15:21:03.564Z,29.90
2018-04-08T15:23:29.836Z,30.30
2018-04-08T15:25:56.097Z,29.20
2018-04-08T15:28:22.408Z,30.43
2018-04-08T15:30:48.762Z,27.93
2018-04-08T15:33:15.132Z,28.40
2018-04-08T15:35:41.454Z,29.47
2018-04-08T15:38:07.921Z,34.43
2018-04-08T15:40:35.008Z,34.07
2018-04-08T15:43:01.350Z,31.50
2018-04-08T15:45:28.562Z,32.90
2018-04-08T15:47:54.903Z,32.63
2018-04-08T15:50:22.246Z,33.17
2018-04-08T15:52:49.549Z,32.83
2018-04-08T15:55:17.298Z,31.70
2018-04-08T15:57:43.648Z,31.33
2018-04-08T16:00:09.940Z,34.70
2018-04-08T16:02:36.220Z,30.93
2018-04-08T16:05:02.826Z,33.63
2018-04-08T16:07:29.134Z,32.17
2018-04-08T16:09:55.485Z,32.30
2018-04-08T16:12:21.821Z,35.00
2018-04-08T16:14:48.114Z,36.80
2018-04-08T16:17:14.485Z,35.20
2018-04-08T16:19:40.788Z,36.10
2018-04-08T16:22:07.109Z,38.07
2018-04-08T16:24:33.407Z,42.60
2018-04-08T16:26:59.721Z,39.07
2018-04-08T16:29:25.989Z,41.43
2018-04-08T16:31:53.051Z,43.40
2018-04-08T16:34:19.315Z,41.60
2018-04-08T16:36:45.604Z,41.70
2018-04-08T16:39:11.898Z,65.37
2018-04-08T16:41:38.215Z,53.63
2018-04-08T16:44:04.467Z,49.80
2018-04-08T16:46:30.780Z,44.03
2018-04-08T16:48:57.090Z,46.37
2018-04-08T16:51:23.398Z,42.37
2018-04-08T16:53:49.690Z,42.33
2018-04-08T16:56:16.034Z,46.90
2018-04-08T16:58:43.488Z,48.37
2018-04-08T17:01:10.552Z,44.37
2018-04-08T17:03:36.826Z,45.77
2018-04-08T17:06:03.117Z,47.93
2018-04-08T17:08:29.396Z,46.00
2018-04-08T17:10:56.707Z,49.70
2018-04-08T17:13:23.768Z,50.07
2018-04-08T17:15:52.247Z,51.67
2018-04-08T17:18:19.291Z,45.60
2018-04-08T17:20:45.624Z,51.07
2018-04-08T17:23:12.283Z,44.20
2018-04-08T17:25:38.626Z,50.27
2018-04-08T17:28:05.058Z,55.97
2018-04-08T17:30:31.483Z,54.93
2018-04-08T17:32:58.006Z,49.63
2018-04-08T17:35:24.606Z,48.70
2018-04-08T17:37:51.772Z,51.80
2018-04-08T17:40:19.021Z,56.87
2018-04-08T17:42:46.441Z,52.20
2018-04-08T17:45:12.953Z,55.50
2018-04-08T17:47:39.672Z,58.93
2018-04-08T17:50:06.041Z,54.57
2018-04-08T17:52:32.398Z,54.87
2018-04-08T17:54:58.756Z,50.80
2018-04-08T17:57:25.154Z,61.73
2018-04-08T17:59:51.547Z,60.93
2018-04-08T18:02:17.896Z,60.17
2018-04-08T18:04:44.212Z,54.07
2018-04-08T18:07:10.545Z,58.20
2018-04-08T18:09:38.910Z,54.50
2018-04-08T18:12:05.325Z,59.20
2018-04-08T18:14:31.721Z,56.47
2018-04-08T18:16:57.999Z,55.33
2018-04-08T18:19:24.304Z,54.20
2018-04-08T18:21:51.361Z,54.87
2018-04-08T18:24:18.458Z,62.77
2018-04-08T18:26:44.783Z,59.40
2018-04-08T18:29:11.060Z,54.67
2018-04-08T18:31:38.163Z,58.07
2018-04-08T18:34:04.430Z,54.93
2018-04-08T18:36:30.758Z,54.00
2018-04-08T18:38:57.059Z,53.73
2018-04-08T18:41:23.375Z,58.07
2018-04-08T18:43:49.672Z,59.00
2018-04-08T18:46:16.718Z,56.07
2018-04-08T18:48:43.816Z,60.53
2018-04-08T18:51:10.239Z,56.23
2018-04-08T18:53:36.582Z,62.50
2018-04-08T18:56:02.940Z,57.40
2018-04-08T18:58:29.273Z,59.17
2018-04-08T19:00:57.013Z,61.07
2018-04-08T19:03:23.368Z,63.37
2018-04-08T19:05:49.672Z,58.70
2018-04-08T19:08:16.002Z,53.10
2018-04-08T19:10:42.269Z,58.20
2018-04-08T19:13:08.612Z,49.17
2018-04-08T19:15:35.640Z,54.97
2018-04-08T19:18:02.101Z,57.13
2018-04-08T19:20:29.173Z,61.87
2018-04-08T19:22:56.301Z,57.23
2018-04-08T19:25:23.350Z,59.37
2018-04-08T19:27:50.371Z,62.03
2018-04-08T19:30:19.544Z,57.27
2018-04-08T19:32:45.862Z,56.00
2018-04-08T19:35:12.155Z,74.40
2018-04-08T19:37:39.372Z,65.90
2018-04-08T19:40:06.617Z,66.73
2018-04-08T19:42:33.914Z,74.77
2018-04-08T19:45:00.954Z,59.67
2018-04-08T19:47:28.152Z,61.20
2018-04-08T19:49:54.491Z,59.70
2018-04-08T19:52:21.721Z,53.77
2018-04-08T19:54:48.115Z,60.20
2018-04-08T19:57:15.171Z,56.60
2018-04-08T19:59:42.246Z,61.77
2018-04-08T20:02:08.550Z,53.93
2018-04-08T20:04:35.786Z,55.00
2018-04-08T20:07:03.553Z,57.50
2018-04-08T20:09:30.017Z,61.47
2018-04-08T20:11:56.294Z,61.30
2018-04-08T20:14:22.600Z,63.43
2018-04-08T20:16:48.864Z,65.03
2018-04-08T20:19:15.212Z,67.63
2018-04-08T20:21:41.471Z,62.03
2018-04-08T20:24:08.496Z,65.57
2018-04-08T20:26:35.530Z,64.07
2018-04-08T20:29:01.905Z,68.83
2018-04-08T20:31:28.172Z,63.43
2018-04-08T20:33:54.511Z,66.20
2018-04-08T20:36:20.826Z,63.80
2018-04-08T20:38:47.093Z,72.00
2018-04-08T20:41:15.092Z,64.13
2018-04-08T20:43:41.395Z,63.20
2018-04-08T20:46:07.950Z,62.63
2018-04-08T20:48:34.239Z,64.87
2018-04-08T20:51:00.523Z,64.20
2018-04-08T20:53:26.824Z,62.27
2018-04-08T20:55:53.906Z,67.23
2018-04-08T20:58:20.220Z,66.93
2018-04-08T21:00:47.198Z,62.97
2018-04-08T21:03:13.504Z,61.93
2018-04-08T21:05:39.801Z,68.27
2018-04-08T21:08:06.167Z,62.63
2018-04-08T21:10:32.464Z,61.67
2018-04-08T21:12:59.743Z,63.90
2018-04-08T21:15:26.768Z,58.70
2018-04-08T21:17:53.794Z,65.00
2018-04-08T21:20:20.071Z,63.00
2018-04-08T21:22:46.325Z,70.60
2018-04-08T21:25:12.588Z,60.37
2018-04-08T21:27:38.850Z,62.70
2018-04-08T21:30:06.030Z,64.57
2018-04-08T21:32:32.326Z,68.50
2018-04-08T21:34:58.652Z,64.33
2018-04-08T21:37:25.663Z,63.67
2018-04-08T21:39:51.990Z,73.57
2018-04-08T21:42:18.267Z,76.50
2018-04-08T21:44:45.300Z,94.87
2018-04-08T21:47:11.577Z,82.10
2018-04-08T21:49:37.884Z,77.57
2018-04-08T21:52:04.942Z,63.80
2018-04-08T21:54:31.238Z,76.37
2018-04-08T21:56:59.020Z,69.97
2018-04-08T21:59:26.073Z,55.93
2018-04-08T22:01:53.109Z,62.83
2018-04-08T22:04:20.171Z,64.10
2018-04-08T22:06:47.279Z,66.60
2018-04-08T22:09:13.584Z,61.87
2018-04-08T22:11:39.983Z,61.47
2018-04-08T22:14:07.028Z,71.30
2018-04-08T22:16:34.096Z,67.10
2018-04-08T22:19:00.365Z,69.30
2018-04-08T22:21:26.701Z,69.20
2018-04-08T22:23:52.995Z,72.00
2018-04-08T22:26:19.335Z,75.23
2018-04-08T22:28:46.435Z,68.87
2018-04-08T22:31:12.977Z,74.87
2018-04-08T22:33:40.011Z,66.73
2018-04-08T22:36:06.303Z,64.70
2018-04-08T22:38:32.639Z,65.03
2018-04-08T22:40:59.087Z,62.00
2018-04-08T22:43:25.485Z,63.90
2018-04-08T22:45:51.781Z,65.27
2018-04-08T22:48:18.078Z,67.00
2018-04-08T22:50:44.435Z,70.40
2018-04-08T22:53:10.715Z,66.20
2018-04-08T22:55:37.088Z,59.30
2018-04-08T22:58:03.416Z,66.13
2018-04-08T23:00:29.666Z,67.67
2018-04-08T23:02:56.686Z,66.73
2018-04-08T23:05:22.976Z,68.00
2018-04-08T23:07:49.368Z,65.70
2018-04-08T23:10:15.666Z,69.57
2018-04-08T23:12:41.976Z,65.40
2018-04-08T23:15:08.265Z,66.70
2018-04-08T23:17:35.295Z,60.10
2018-04-08T23:20:01.598Z,73.87
2018-04-08T23:22:27.969Z,65.50
2018-04-08T23:24:55.765Z,67.80
2018-04-08T23:27:22.125Z,68.83
2018-04-08T23:29:48.409Z,68.53
2018-04-08T23:32:15.395Z,63.37
2018-04-08T23:34:41.701Z,74.07
2018-04-08T23:37:08.060Z,68.30
2018-04-08T23:39:34.326Z,66.60
2018-04-08T23:42:00.643Z,69.07
2018-04-08T23:44:26.952Z,69.10
2018-04-08T23:46:53.256Z,67.73
2018-04-08T23:49:20.333Z,65.00
2018-04-08T23:51:46.608Z,73.40
2018-04-08T23:54:13.917Z,71.73
2018-04-08T23:56:40.177Z,70.43
2018-04-08T23:59:07.268Z,68.37
